createdAt,value
2023-05-06T00:01:20.364Z,100463.09
2023-05-06T00:03:48.578Z,100544.97
2023-05-06T00:06:15.635Z,100542.25
2023-05-06T00:08:42.710Z,100542.34
2023-05-06T00:11:09.892Z,100536.34
2023-05-06T00:13:38.152Z,100534.53
2023-05-06T00:16:05.518Z,100536.41
2023-05-06T00:18:32.570Z,100538.06
2023-05-06T00:20:59.368Z,100533.72
2023-05-06T00:23:26.185Z,100540.72
2023-05-06T00:25:54.855Z,100526.94
2023-05-06T00:28:22.252Z,100546.16
2023-05-06T00:30:49.165Z,100512.84
2023-05-06T00:33:16.124Z,100542.69
2023-05-06T00:35:43.067Z,100543.62
2023-05-06T00:38:12.873Z,100543.62
2023-05-06T00:40:40.700Z,100543.62
2023-05-06T00:43:07.658Z,100548.16
2023-05-06T00:45:35.162Z,100553.50
2023-05-06T00:48:04.131Z,100545.63
2023-05-06T00:50:33.306Z,100539.59
2023-05-06T00:53:01.843Z,100540.56
2023-05-06T00:55:28.962Z,100538.81
2023-05-06T00:57:56.056Z,100543.22
2023-05-06T01:00:23.126Z,100536.28
2023-05-06T01:02:50.156Z,100542.50
2023-05-06T01:05:19.248Z,100535.50
2023-05-06T01:07:55.270Z,100532.06
2023-05-06T01:10:34.014Z,100539.97
2023-05-06T01:13:12.318Z,100532.84
2023-05-06T01:15:45.834Z,100533.75
2023-05-06T01:18:22.707Z,100539.06
2023-05-06T01:20:52.663Z,100535.41
2023-05-06T01:23:20.290Z,100533.75
2023-05-06T01:25:47.181Z,100531.19
2023-05-06T01:28:14.767Z,100522.47
2023-05-06T01:31:05.584Z,100527.78
2023-05-06T01:33:35.478Z,100526.03
2023-05-06T01:36:12.970Z,100523.44
2023-05-06T01:39:12.337Z,100523.38
2023-05-06T01:41:41.695Z,100517.25
2023-05-06T01:44:10.914Z,100518.19
2023-05-06T01:46:37.912Z,100515.47
2023-05-06T01:49:11.412Z,100516.44
2023-05-06T01:51:39.037Z,100520.72
2023-05-06T01:54:06.516Z,100518.22
2023-05-06T01:56:33.407Z,100496.56
2023-05-06T01:59:00.485Z,100522.09
2023-05-06T02:01:27.587Z,100523.88
2023-05-06T02:03:54.860Z,100523.88
2023-05-06T02:06:21.807Z,100516.88
2023-05-06T02:08:49.524Z,100522.31
2023-05-06T02:11:16.485Z,100523.16
2023-05-06T02:13:43.535Z,100512.66
2023-05-06T02:16:10.561Z,100517.16
2023-05-06T02:18:37.496Z,100508.50
2023-05-06T02:21:05.374Z,100524.31
2023-05-06T02:23:32.502Z,100526.97
2023-05-06T02:25:59.467Z,100521.63
2023-05-06T02:28:26.650Z,100524.25
2023-05-06T02:30:57.402Z,100531.34
2023-05-06T02:33:25.020Z,100533.09
2023-05-06T02:35:51.908Z,100533.09
2023-05-06T02:38:19.847Z,100530.50
2023-05-06T02:40:47.092Z,100530.62
2023-05-06T02:43:13.920Z,100507.78
2023-05-06T02:45:41.047Z,100531.41
2023-05-06T02:48:07.988Z,100534.12
2023-05-06T02:50:36.245Z,100543.88
2023-05-06T02:53:03.587Z,100535.09
2023-05-06T02:55:30.706Z,100526.50
2023-05-06T02:57:57.567Z,100545.78
2023-05-06T03:00:24.414Z,100549.28
2023-05-06T03:02:51.879Z,100546.66
2023-05-06T03:05:19.026Z,100543.19
2023-05-06T03:07:45.837Z,100550.16
2023-05-06T03:10:12.818Z,100552.81
2023-05-06T03:12:39.966Z,100536.03
2023-05-06T03:15:07.356Z,100538.87
2023-05-06T03:17:34.388Z,100539.59
2023-05-06T03:20:01.334Z,100541.41
2023-05-06T03:22:28.245Z,100538.84
2023-05-06T03:24:55.045Z,100509.06
2023-05-06T03:27:21.909Z,100534.50
2023-05-06T03:29:48.794Z,100523.88
2023-05-06T03:32:16.054Z,100532.63
2023-05-06T03:34:43.008Z,100518.56
2023-05-06T03:37:09.987Z,100515.94
2023-05-06T03:39:36.963Z,100499.16
2023-05-06T03:42:04.066Z,100497.38
2023-05-06T03:44:31.169Z,100493.84
2023-05-06T03:46:58.011Z,100503.56
2023-05-06T03:49:24.924Z,100504.38
2023-05-06T03:51:53.384Z,100516.00
2023-05-06T03:54:20.255Z,100515.19
2023-05-06T03:56:47.078Z,100519.69
2023-05-06T03:59:14.182Z,100510.78
2023-05-06T04:01:42.146Z,100505.34
2023-05-06T04:04:09.220Z,100520.25
2023-05-06T04:06:36.122Z,100516.59
2023-05-06T04:09:04.391Z,100527.09
2023-05-06T04:11:31.773Z,100544.81
2023-05-06T04:13:58.718Z,100545.53
2023-05-06T04:16:25.604Z,100548.44
2023-05-06T04:18:52.815Z,100547.31
2023-05-06T04:21:19.775Z,100542.75
2023-05-06T04:23:46.635Z,100547.94
2023-05-06T04:26:13.480Z,100553.19
2023-05-06T04:28:40.925Z,100551.28
2023-05-06T04:31:09.001Z,100562.59
2023-05-06T04:33:35.952Z,100564.34
2023-05-06T04:36:03.536Z,100564.97
2023-05-06T04:38:32.159Z,100556.06
2023-05-06T04:40:59.654Z,100557.59
2023-05-06T04:43:29.874Z,100556.50
2023-05-06T04:45:57.388Z,100558.09
2023-05-06T04:48:24.360Z,100553.53
2023-05-06T04:50:51.367Z,100546.44
2023-05-06T04:53:18.356Z,100559.41
2023-05-06T04:55:45.187Z,100556.53
2023-05-06T04:58:12.123Z,100561.66
2023-05-06T05:00:39.570Z,100565.03
2023-05-06T05:03:06.810Z,100567.62
2023-05-06T05:05:36.318Z,100574.03
2023-05-06T05:08:03.363Z,100567.09
2023-05-06T05:10:30.379Z,100589.06
2023-05-06T05:12:58.377Z,100552.06
2023-05-06T05:15:25.338Z,100585.97
2023-05-06T05:17:52.230Z,100588.28
2023-05-06T05:20:19.107Z,100583.94
2023-05-06T05:22:46.444Z,100587.13
2023-05-06T05:25:13.615Z,100585.13
2023-05-06T05:27:42.299Z,100580.41
2023-05-06T05:30:09.701Z,100583.69
2023-05-06T05:32:36.828Z,100583.41
2023-05-06T05:35:04.058Z,100578.94
2023-05-06T05:37:31.269Z,100580.53
2023-05-06T05:39:58.464Z,100574.16
2023-05-06T05:42:25.454Z,100571.25
2023-05-06T05:44:52.709Z,100543.88
2023-05-06T05:47:19.490Z,100577.62
2023-05-06T05:49:46.300Z,100578.25
2023-05-06T05:52:13.190Z,100570.03
2023-05-06T05:54:40.088Z,100588.88
2023-05-06T05:57:06.954Z,100586.41
2023-05-06T05:59:34.022Z,100581.41
2023-05-06T06:02:01.100Z,100577.16
2023-05-06T06:04:28.150Z,100576.63
2023-05-06T06:06:58.137Z,100575.91
2023-05-06T06:09:25.025Z,100573.41
2023-05-06T06:11:52.346Z,100568.19
2023-05-06T06:14:19.267Z,100563.06
2023-05-06T06:16:46.403Z,100577.31
2023-05-06T06:19:14.872Z,100575.41
2023-05-06T06:21:41.855Z,100573.91
2023-05-06T06:24:08.978Z,100534.56
2023-05-06T06:26:35.873Z,100567.25
2023-05-06T06:29:02.929Z,100555.03
2023-05-06T06:31:29.896Z,100568.69
2023-05-06T06:33:56.909Z,100568.87
2023-05-06T06:36:23.751Z,100563.84
2023-05-06T06:38:50.642Z,100565.28
2023-05-06T06:41:17.666Z,100563.94
2023-05-06T06:43:44.704Z,100559.13
2023-05-06T06:46:11.637Z,100558.25
2023-05-06T06:48:38.978Z,100552.56
2023-05-06T06:51:06.111Z,100559.53
2023-05-06T06:53:33.208Z,100555.16
2023-05-06T06:56:00.187Z,100551.81
2023-05-06T06:58:27.704Z,100545.50
2023-05-06T07:00:54.625Z,100555.41
2023-05-06T07:03:21.528Z,100548.09
2023-05-06T07:05:48.381Z,100545.31
2023-05-06T07:08:17.289Z,100534.09
2023-05-06T07:10:44.422Z,100553.62
2023-05-06T07:13:11.671Z,100553.53
2023-05-06T07:15:38.772Z,100556.84
2023-05-06T07:18:06.054Z,100561.41
2023-05-06T07:20:33.083Z,100558.16
2023-05-06T07:22:59.973Z,100564.50
2023-05-06T07:25:28.092Z,100561.38
2023-05-06T07:27:55.350Z,100557.94
2023-05-06T07:30:23.340Z,100557.12
2023-05-06T07:32:50.817Z,100555.22
2023-05-06T07:35:18.199Z,100554.19
2023-05-06T07:37:48.305Z,100523.69
2023-05-06T07:40:15.324Z,100549.63
2023-05-06T07:42:43.087Z,100553.47
2023-05-06T07:45:11.197Z,100547.66
2023-05-06T07:47:38.663Z,100546.06
2023-05-06T07:50:06.958Z,100546.00
2023-05-06T07:52:34.223Z,100551.91
2023-05-06T07:55:01.900Z,100540.12
2023-05-06T07:57:29.092Z,100540.53
2023-05-06T07:59:56.112Z,100540.53
2023-05-06T08:02:23.072Z,100536.81
2023-05-06T08:04:51.617Z,100515.75
2023-05-06T08:07:19.377Z,100531.97
2023-05-06T08:09:46.506Z,100538.97
2023-05-06T08:12:13.746Z,100529.09
2023-05-06T08:14:41.157Z,100544.06
2023-05-06T08:17:07.981Z,100549.72
2023-05-06T08:19:35.005Z,100537.47
2023-05-06T08:22:02.155Z,100553.59
2023-05-06T08:24:29.646Z,100546.41
2023-05-06T08:26:56.554Z,100546.16
2023-05-06T08:29:23.411Z,100547.03
2023-05-06T08:31:50.648Z,100546.66
2023-05-06T08:34:19.257Z,100541.81
2023-05-06T08:36:46.101Z,100547.50
2023-05-06T08:41:47.091Z,100538.09
2023-05-06T08:44:17.749Z,100549.25
2023-05-06T08:46:46.198Z,100552.84
2023-05-06T08:49:13.071Z,100548.72
2023-05-06T08:51:43.747Z,100539.22
2023-05-06T08:54:13.794Z,100535.50
2023-05-06T08:56:45.272Z,100532.72
2023-05-06T08:59:13.848Z,100531.06
2023-05-06T09:01:41.418Z,100532.13
2023-05-06T09:04:09.160Z,100531.06
2023-05-06T09:06:36.175Z,100533.47
2023-05-06T09:09:03.516Z,100528.03
2023-05-06T09:11:31.139Z,100522.69
2023-05-06T09:14:17.726Z,100497.31
2023-05-06T09:16:46.748Z,100516.16
2023-05-06T09:19:14.938Z,100517.56
2023-05-06T09:21:44.125Z,100513.19
2023-05-06T09:24:12.977Z,100517.69
2023-05-06T09:26:42.639Z,100514.03
2023-05-06T09:29:09.991Z,100510.50
2023-05-06T09:31:42.671Z,100506.00
2023-05-06T09:34:10.309Z,100505.31
2023-05-06T09:36:37.481Z,100512.72
2023-05-06T09:39:05.532Z,100497.72
2023-05-06T09:41:33.409Z,100495.34
2023-05-06T09:44:01.453Z,100501.72
2023-05-06T09:46:29.341Z,100497.75
2023-05-06T09:48:57.619Z,100483.41
2023-05-06T09:51:27.901Z,100481.72
2023-05-06T09:53:56.538Z,100483.72
2023-05-06T09:56:23.866Z,100485.75
2023-05-06T09:58:52.706Z,100485.00
2023-05-06T10:01:32.722Z,100473.84
2023-05-06T10:04:09.502Z,100468.03
2023-05-06T10:06:39.810Z,100470.19
2023-05-06T10:09:10.616Z,100454.84
2023-05-06T10:11:38.823Z,100442.94
2023-05-06T10:14:07.285Z,100460.00
2023-05-06T10:16:36.355Z,100453.72
2023-05-06T10:19:06.781Z,100441.31
2023-05-06T10:21:39.134Z,100398.50
2023-05-06T10:24:09.166Z,100435.44
2023-05-06T10:26:37.615Z,100433.94
2023-05-06T10:29:10.044Z,100431.03
2023-05-06T10:31:48.344Z,100436.00
2023-05-06T10:34:18.846Z,100428.81
2023-05-06T10:36:46.079Z,100425.97
2023-05-06T10:39:14.359Z,100430.66
2023-05-06T10:41:41.644Z,100414.06
2023-05-06T10:44:10.152Z,100398.75
2023-05-06T10:47:03.397Z,100405.16
2023-05-06T10:49:30.312Z,100411.78
2023-05-06T10:52:12.092Z,100419.78
2023-05-06T10:54:50.933Z,100390.56
2023-05-06T10:57:18.103Z,100407.69
2023-05-06T10:59:47.047Z,100405.66
2023-05-06T11:02:16.849Z,100409.16
2023-05-06T11:04:50.560Z,100409.41
2023-05-06T11:07:26.759Z,100395.00
2023-05-06T11:09:59.247Z,100403.69
2023-05-06T11:12:46.263Z,100396.72
2023-05-06T11:15:27.016Z,100413.37
2023-05-06T11:17:55.946Z,100404.75
2023-05-06T11:20:26.560Z,100404.00
2023-05-06T11:22:53.718Z,100365.16
2023-05-06T11:25:41.321Z,100393.75
2023-05-06T11:28:13.663Z,100396.37
2023-05-06T11:30:53.619Z,100392.22
2023-05-06T11:33:24.561Z,100395.72
2023-05-06T11:35:51.433Z,100400.16
2023-05-06T11:38:19.002Z,100391.44
2023-05-06T11:40:46.180Z,100388.09
2023-05-06T11:43:16.693Z,100365.66
2023-05-06T11:45:46.546Z,100387.16
2023-05-06T11:48:17.867Z,100387.91
2023-05-06T11:50:49.347Z,100394.97
2023-05-06T11:53:21.485Z,100389.97
2023-05-06T11:55:49.861Z,100394.25
2023-05-06T11:58:23.556Z,100394.47
2023-05-06T12:00:54.362Z,100391.03
2023-05-06T12:03:22.230Z,100395.25
2023-05-06T12:05:50.456Z,100389.31
2023-05-06T12:08:27.245Z,100393.97
2023-05-06T12:10:59.462Z,100373.72
2023-05-06T12:13:27.967Z,100376.75
2023-05-06T12:15:56.191Z,100390.59
2023-05-06T12:18:24.095Z,100383.69
2023-05-06T12:20:54.222Z,100387.84
2023-05-06T12:23:24.931Z,100388.84
2023-05-06T12:26:04.130Z,100382.00
2023-05-06T12:28:33.126Z,100381.50
2023-05-06T12:31:02.032Z,100383.34
2023-05-06T12:33:44.121Z,100374.38
2023-05-06T12:36:11.216Z,100384.00
2023-05-06T12:38:38.266Z,100380.44
2023-05-06T12:41:07.141Z,100362.44
2023-05-06T12:43:33.992Z,100376.88
2023-05-06T12:46:05.761Z,100376.63
2023-05-06T12:48:32.864Z,100381.19
2023-05-06T12:50:59.977Z,100380.63
2023-05-06T12:53:35.543Z,100379.53
2023-05-06T12:56:02.410Z,100379.84
2023-05-06T12:58:29.643Z,100368.56
2023-05-06T13:00:56.518Z,100355.34
2023-05-06T13:03:23.545Z,100393.31
2023-05-06T13:05:51.946Z,100390.22
2023-05-06T13:08:19.022Z,100392.03
2023-05-06T13:10:45.935Z,100387.94
2023-05-06T13:13:12.937Z,100393.19
2023-05-06T13:15:39.961Z,100394.84
2023-05-06T13:18:07.181Z,100372.56
2023-05-06T13:20:34.108Z,100402.97
2023-05-06T13:23:01.059Z,100404.53
2023-05-06T13:25:27.850Z,100408.12
2023-05-06T13:27:54.721Z,100385.91
2023-05-06T13:30:21.841Z,100386.22
2023-05-06T13:32:48.887Z,100398.06
2023-05-06T13:35:15.828Z,100393.19
2023-05-06T13:37:42.706Z,100397.78
2023-05-06T13:40:10.367Z,100405.59
2023-05-06T13:42:38.704Z,100388.00
2023-05-06T13:45:06.590Z,100404.16
2023-05-06T13:47:33.518Z,100396.91
2023-05-06T13:50:00.909Z,100390.88
2023-05-06T13:52:28.048Z,100391.31
2023-05-06T13:54:55.328Z,100396.09
2023-05-06T13:57:24.447Z,100391.66
2023-05-06T13:59:51.860Z,100387.88
2023-05-06T14:02:18.842Z,100392.19
2023-05-06T14:04:45.770Z,100388.91
2023-05-06T14:07:12.618Z,100389.31
2023-05-06T14:09:39.546Z,100386.72
2023-05-06T14:12:06.475Z,100393.94
2023-05-06T14:14:33.578Z,100401.22
2023-05-06T14:17:00.428Z,100409.81
2023-05-06T14:19:27.308Z,100410.37
2023-05-06T14:21:54.310Z,100397.06
2023-05-06T14:24:21.287Z,100400.75
2023-05-06T14:26:48.174Z,100412.28
2023-05-06T14:29:15.560Z,100418.97
2023-05-06T14:31:42.704Z,100422.19
2023-05-06T14:34:09.609Z,100414.41
2023-05-06T14:36:36.493Z,100405.81
2023-05-06T14:39:03.545Z,100397.81
2023-05-06T14:41:35.498Z,100383.50
2023-05-06T14:44:02.594Z,100347.50
2023-05-06T14:46:29.775Z,100378.53
2023-05-06T14:48:57.449Z,100375.72
2023-05-06T14:51:24.322Z,100378.03
2023-05-06T14:53:51.231Z,100378.66
2023-05-06T14:56:18.199Z,100371.88
2023-05-06T14:58:46.203Z,100370.28
2023-05-06T15:01:13.700Z,100364.78
2023-05-06T15:03:40.741Z,100371.34
2023-05-06T15:06:07.977Z,100367.66
2023-05-06T15:08:34.927Z,100369.59
2023-05-06T15:11:04.256Z,100371.06
2023-05-06T15:13:31.411Z,100355.94
2023-05-06T15:15:58.418Z,100367.06
2023-05-06T15:18:25.680Z,100363.72
2023-05-06T15:20:55.146Z,100343.91
2023-05-06T15:23:22.445Z,100365.53
2023-05-06T15:25:49.346Z,100365.25
2023-05-06T15:28:16.461Z,100365.06
2023-05-06T15:30:43.493Z,100356.97
2023-05-06T15:33:10.696Z,100326.00
2023-05-06T15:35:37.560Z,100329.53
2023-05-06T15:38:04.459Z,100347.69
2023-05-06T15:40:31.504Z,100354.75
2023-05-06T15:42:58.573Z,100355.06
2023-05-06T15:45:26.050Z,100362.34
2023-05-06T15:47:54.232Z,100354.66
2023-05-06T15:50:32.024Z,100351.84
2023-05-06T15:53:01.302Z,100355.06
2023-05-06T15:55:28.335Z,100344.56
2023-05-06T15:57:55.186Z,100354.66
2023-05-06T16:00:22.335Z,100350.59
2023-05-06T16:02:49.440Z,100355.34
2023-05-06T16:05:16.754Z,100354.88
2023-05-06T16:07:43.719Z,100339.06
2023-05-06T16:10:11.024Z,100355.53
2023-05-06T16:12:41.031Z,100349.53
2023-05-06T16:15:08.490Z,100339.47
2023-05-06T16:17:37.842Z,100345.56
2023-05-06T16:20:05.645Z,100326.44
2023-05-06T16:22:32.700Z,100338.75
2023-05-06T16:24:59.528Z,100305.97
2023-05-06T16:27:28.336Z,100346.16
2023-05-06T16:29:55.645Z,100346.69
2023-05-06T16:32:23.701Z,100350.06
2023-05-06T16:34:50.822Z,100359.94
2023-05-06T16:37:17.715Z,100357.47
2023-05-06T16:39:44.664Z,100355.19
2023-05-06T16:42:11.535Z,100358.75
2023-05-06T16:44:38.314Z,100353.88
2023-05-06T16:47:05.336Z,100355.22
2023-05-06T16:49:33.635Z,100352.78
2023-05-06T16:52:00.882Z,100357.59
2023-05-06T16:54:28.134Z,100345.28
2023-05-06T16:56:55.173Z,100360.47
2023-05-06T16:59:22.591Z,100357.88
2023-05-06T17:01:50.408Z,100348.25
2023-05-06T17:04:17.691Z,100359.84
2023-05-06T17:06:44.525Z,100349.22
2023-05-06T17:09:11.402Z,100355.75
2023-05-06T17:11:38.372Z,100353.06
2023-05-06T17:14:05.809Z,100344.38
2023-05-06T17:16:32.739Z,100344.22
2023-05-06T17:18:59.643Z,100345.34
2023-05-06T17:21:27.956Z,100351.38
2023-05-06T17:23:55.118Z,100298.88
2023-05-06T17:26:22.611Z,100343.53
2023-05-06T17:28:50.991Z,100342.00
2023-05-06T17:31:18.817Z,100354.41
2023-05-06T17:33:46.069Z,100338.53
2023-05-06T17:36:13.880Z,100332.34
2023-05-06T17:38:40.857Z,100324.53
2023-05-06T17:41:07.744Z,100289.78
2023-05-06T17:43:34.778Z,100267.59
2023-05-06T17:46:01.762Z,100320.28
2023-05-06T17:48:28.774Z,100317.03
2023-05-06T17:51:02.978Z,100320.56
2023-05-06T17:53:32.361Z,100290.34
2023-05-06T17:55:59.259Z,100320.81
2023-05-06T17:58:26.188Z,100328.91
2023-05-06T18:00:53.108Z,100314.44
2023-05-06T18:03:20.058Z,100327.44
2023-05-06T18:05:47.168Z,100314.44
2023-05-06T18:08:14.358Z,100330.34
2023-05-06T18:10:41.620Z,100333.09
2023-05-06T18:13:08.974Z,100346.63
2023-05-06T18:15:35.873Z,100344.38
2023-05-06T18:18:03.088Z,100349.59
2023-05-06T18:20:30.184Z,100308.72
2023-05-06T18:22:58.654Z,100339.81
2023-05-06T18:25:26.068Z,100348.38
2023-05-06T18:27:53.111Z,100349.63
2023-05-06T18:30:19.999Z,100358.91
2023-05-06T18:32:48.241Z,100352.84
2023-05-06T18:35:17.108Z,100364.78
2023-05-06T18:37:44.010Z,100364.59
2023-05-06T18:40:11.425Z,100374.03
2023-05-06T18:42:38.327Z,100364.16
2023-05-06T18:45:07.045Z,100365.16
2023-05-06T18:47:34.167Z,100365.34
2023-05-06T18:50:01.198Z,100286.97
2023-05-06T18:52:28.148Z,100362.06
2023-05-06T18:54:55.022Z,100362.84
2023-05-06T18:57:21.992Z,100364.00
2023-05-06T18:59:48.854Z,100362.66
2023-05-06T19:02:15.838Z,100368.50
2023-05-06T19:04:43.872Z,100368.34
2023-05-06T19:07:11.249Z,100371.09
2023-05-06T19:09:38.644Z,100384.62
2023-05-06T19:12:05.718Z,100378.34
2023-05-06T19:14:34.649Z,100380.13
2023-05-06T19:17:03.767Z,100364.53
2023-05-06T19:19:31.321Z,100386.31
2023-05-06T19:21:59.123Z,100382.25
2023-05-06T19:24:26.348Z,100391.16
2023-05-06T19:26:53.344Z,100393.63
2023-05-06T19:29:20.319Z,100385.91
2023-05-06T19:31:47.626Z,100398.31
2023-05-06T19:34:14.561Z,100398.31
2023-05-06T19:36:47.714Z,100390.63
2023-05-06T19:39:14.591Z,100398.06
2023-05-06T19:41:42.011Z,100410.37
2023-05-06T19:44:08.883Z,100396.37
2023-05-06T19:46:36.083Z,100398.25
2023-05-06T19:49:03.098Z,100404.34
2023-05-06T19:51:30.253Z,100384.56
2023-05-06T19:53:57.120Z,100408.03
2023-05-06T19:56:24.097Z,100383.63
2023-05-06T19:58:53.805Z,100409.03
2023-05-06T20:01:23.926Z,100402.00
2023-05-06T20:03:51.271Z,100410.28
2023-05-06T20:06:18.254Z,100414.59
2023-05-06T20:08:45.211Z,100405.09
2023-05-06T20:11:12.351Z,100400.06
2023-05-06T20:13:39.444Z,100406.03
2023-05-06T20:16:06.840Z,100413.53
2023-05-06T20:18:33.762Z,100392.91
2023-05-06T20:21:00.998Z,100421.56
2023-05-06T20:23:27.949Z,100418.97
2023-05-06T20:25:54.966Z,100417.91
2023-05-06T20:28:21.910Z,100391.78
2023-05-06T20:30:48.840Z,100420.00
2023-05-06T20:33:15.802Z,100415.25
2023-05-06T20:35:42.736Z,100363.31
2023-05-06T20:38:10.956Z,100428.41
2023-05-06T20:40:37.874Z,100427.03
2023-05-06T20:43:04.742Z,100406.41
2023-05-06T20:45:31.716Z,100401.81
2023-05-06T20:47:58.917Z,100420.13
2023-05-06T20:50:28.584Z,100418.28
2023-05-06T20:52:55.752Z,100387.25
2023-05-06T20:55:26.041Z,100393.94
2023-05-06T20:57:53.165Z,100409.59
2023-05-06T21:00:20.620Z,100391.38
2023-05-06T21:02:47.698Z,100406.44
2023-05-06T21:05:14.819Z,100397.41
2023-05-06T21:07:41.928Z,100392.81
2023-05-06T21:10:09.920Z,100399.87
2023-05-06T21:12:37.136Z,100396.44
2023-05-06T21:15:04.889Z,100395.69
2023-05-06T21:17:31.938Z,100387.69
2023-05-06T21:19:58.959Z,100393.16
2023-05-06T21:22:26.046Z,100396.78
2023-05-06T21:24:53.040Z,100392.44
2023-05-06T21:27:19.904Z,100392.81
2023-05-06T21:29:46.856Z,100380.56
2023-05-06T21:32:14.018Z,100377.38
2023-05-06T21:34:40.938Z,100378.56
2023-05-06T21:37:07.813Z,100357.19
2023-05-06T21:39:34.714Z,100386.31
2023-05-06T21:42:02.042Z,100383.03
2023-05-06T21:44:29.022Z,100372.00
2023-05-06T21:46:56.345Z,100376.50
2023-05-06T21:49:23.479Z,100373.94
2023-05-06T21:51:50.538Z,100380.47
2023-05-06T21:54:17.473Z,100380.00
2023-05-06T21:56:44.979Z,100373.38
2023-05-06T21:59:11.943Z,100377.91
2023-05-06T22:01:39.082Z,100385.16
2023-05-06T22:04:11.485Z,100386.97
2023-05-06T22:06:39.447Z,100381.41
2023-05-06T22:09:09.439Z,100384.06
2023-05-06T22:11:38.323Z,100386.03
2023-05-06T22:14:06.784Z,100390.00
2023-05-06T22:16:35.598Z,100396.34
2023-05-06T22:19:03.951Z,100391.03
2023-05-06T22:21:32.033Z,100392.03
2023-05-06T22:23:59.741Z,100395.63
2023-05-06T22:26:30.193Z,100262.84
2023-05-06T22:28:57.105Z,100398.19
2023-05-06T22:31:24.775Z,100388.72
2023-05-06T22:33:55.422Z,100390.94
2023-05-06T22:36:22.540Z,100388.66
2023-05-06T22:38:49.753Z,100396.66
2023-05-06T22:41:17.728Z,100394.94
2023-05-06T22:43:44.815Z,100391.97
2023-05-06T22:46:11.657Z,100391.12
2023-05-06T22:48:38.661Z,100391.22
2023-05-06T22:51:06.481Z,100400.00
2023-05-06T22:53:33.381Z,100396.47
2023-05-06T22:56:01.072Z,100392.25
2023-05-06T22:58:28.458Z,100398.03
2023-05-06T23:00:55.593Z,100405.00
2023-05-06T23:03:23.272Z,100406.53
2023-05-06T23:05:50.151Z,100395.34
2023-05-06T23:08:17.221Z,100409.38
2023-05-06T23:10:44.230Z,100397.91
2023-05-06T23:13:12.115Z,100411.06
2023-05-06T23:15:40.039Z,100414.62
2023-05-06T23:18:07.385Z,100396.28
2023-05-06T23:20:34.434Z,100401.41
2023-05-06T23:23:01.719Z,100396.28
2023-05-06T23:25:28.649Z,100403.53
2023-05-06T23:27:55.630Z,100405.25
2023-05-06T23:30:22.643Z,100410.50
2023-05-06T23:32:49.689Z,100412.31
2023-05-06T23:35:16.669Z,100415.25
2023-05-06T23:37:43.542Z,100402.94
2023-05-06T23:40:12.655Z,100402.16
2023-05-06T23:42:40.113Z,100399.81
2023-05-06T23:45:08.129Z,100394.62
2023-05-06T23:47:35.284Z,100399.50
2023-05-06T23:50:02.145Z,100396.06
2023-05-06T23:52:29.159Z,100398.97
2023-05-06T23:54:56.531Z,100387.62
2023-05-06T23:57:23.418Z,100361.22
2023-05-06T23:59:50.761Z,100388.56
